sensor_id;sensor_type;location;lat;lon;timestamp;P1;durP1;ratioP1;P2;durP2;ratioP2
23060;SDS011;11698;47.690;9.132;2022-12-05T00:00:51;8.10;;;4.00;;
23060;SDS011;11698;47.690;9.132;2022-12-05T00:03:17;9.30;;;5.10;;
23060;SDS011;11698;47.690;9.132;2022-12-05T00:05:43;8.98;;;4.25;;
23060;SDS011;11698;47.690;9.132;2022-12-05T00:08:09;9.70;;;4.60;;
23060;SDS011;11698;47.690;9.132;2022-12-05T00:10:36;7.10;;;3.88;;
23060;SDS011;11698;47.690;9.132;2022-12-05T00:13:02;9.90;;;5.23;;
23060;SDS011;11698;47.690;9.132;2022-12-05T00:15:28;8.10;;;4.33;;
23060;SDS011;11698;47.690;9.132;2022-12-05T00:17:54;10.20;;;5.32;;
23060;SDS011;11698;47.690;9.132;2022-12-05T00:20:20;10.18;;;5.40;;
23060;SDS011;11698;47.690;9.132;2022-12-05T00:22:46;9.97;;;5.20;;
23060;SDS011;11698;47.690;9.132;2022-12-05T00:25:12;7.37;;;4.23;;
23060;SDS011;11698;47.690;9.132;2022-12-05T00:27:38;11.45;;;5.40;;
23060;SDS011;11698;47.690;9.132;2022-12-05T00:30:04;11.90;;;6.32;;
23060;SDS011;11698;47.690;9.132;2022-12-05T00:32:31;10.63;;;5.45;;
23060;SDS011;11698;47.690;9.132;2022-12-05T00:34:57;10.13;;;5.18;;
23060;SDS011;11698;47.690;9.132;2022-12-05T00:37:23;12.03;;;5.63;;
23060;SDS011;11698;47.690;9.132;2022-12-05T00:39:49;11.32;;;5.63;;
23060;SDS011;11698;47.690;9.132;2022-12-05T00:42:15;10.32;;;5.28;;
23060;SDS011;11698;47.690;9.132;2022-12-05T00:44:41;9.05;;;4.47;;
23060;SDS011;11698;47.690;9.132;2022-12-05T00:47:07;8.00;;;5.00;;
23060;SDS011;11698;47.690;9.132;2022-12-05T00:49:33;10.85;;;6.00;;
23060;SDS011;11698;47.690;9.132;2022-12-05T00:51:59;9.20;;;5.32;;
23060;SDS011;11698;47.690;9.132;2022-12-05T00:54:25;12.48;;;5.75;;
23060;SDS011;11698;47.690;9.132;2022-12-05T00:56:51;11.10;;;6.50;;
23060;SDS011;11698;47.690;9.132;2022-12-05T00:59:20;13.05;;;6.65;;
23060;SDS011;11698;47.690;9.132;2022-12-05T01:01:46;11.73;;;5.90;;
23060;SDS011;11698;47.690;9.132;2022-12-05T01:04:14;13.00;;;6.40;;
23060;SDS011;11698;47.690;9.132;2022-12-05T01:06:41;12.53;;;6.40;;
23060;SDS011;11698;47.690;9.132;2022-12-05T01:09:08;11.48;;;6.45;;
23060;SDS011;11698;47.690;9.132;2022-12-05T01:11:35;11.60;;;6.37;;
23060;SDS011;11698;47.690;9.132;2022-12-05T01:14:01;13.10;;;6.23;;
23060;SDS011;11698;47.690;9.132;2022-12-05T01:16:32;12.10;;;6.10;;
23060;SDS011;11698;47.690;9.132;2022-12-05T01:18:59;11.82;;;6.18;;
23060;SDS011;11698;47.690;9.132;2022-12-05T01:21:25;13.68;;;6.10;;
23060;SDS011;11698;47.690;9.132;2022-12-05T01:23:51;11.05;;;6.13;;
23060;SDS011;11698;47.690;9.132;2022-12-05T01:26:18;11.40;;;5.75;;
23060;SDS011;11698;47.690;9.132;2022-12-05T01:28:44;11.25;;;6.25;;
23060;SDS011;11698;47.690;9.132;2022-12-05T01:31:30;11.52;;;5.85;;
23060;SDS011;11698;47.690;9.132;2022-12-05T01:33:57;12.73;;;5.93;;
23060;SDS011;11698;47.690;9.132;2022-12-05T01:36:23;10.80;;;6.32;;
23060;SDS011;11698;47.690;9.132;2022-12-05T01:38:50;12.17;;;6.57;;
23060;SDS011;11698;47.690;9.132;2022-12-05T01:41:17;11.80;;;5.90;;
23060;SDS011;11698;47.690;9.132;2022-12-05T01:43:53;13.23;;;6.38;;
23060;SDS011;11698;47.690;9.132;2022-12-05T01:46:20;10.67;;;5.97;;
23060;SDS011;11698;47.690;9.132;2022-12-05T01:48:46;11.90;;;5.60;;
23060;SDS011;11698;47.690;9.132;2022-12-05T01:51:13;12.30;;;6.45;;
23060;SDS011;11698;47.690;9.132;2022-12-05T01:53:39;10.27;;;5.07;;
23060;SDS011;11698;47.690;9.132;2022-12-05T01:56:05;12.63;;;5.83;;
23060;SDS011;11698;47.690;9.132;2022-12-05T01:58:33;10.35;;;5.53;;
23060;SDS011;11698;47.690;9.132;2022-12-05T02:01:00;12.43;;;5.78;;
23060;SDS011;11698;47.690;9.132;2022-12-05T02:03:26;11.75;;;5.93;;
23060;SDS011;11698;47.690;9.132;2022-12-05T02:05:52;12.88;;;6.35;;
23060;SDS011;11698;47.690;9.132;2022-12-05T02:08:19;11.32;;;6.13;;
23060;SDS011;11698;47.690;9.132;2022-12-05T02:10:46;11.00;;;5.72;;
23060;SDS011;11698;47.690;9.132;2022-12-05T02:13:39;13.35;;;7.25;;
23060;SDS011;11698;47.690;9.132;2022-12-05T02:16:09;10.90;;;6.03;;
23060;SDS011;11698;47.690;9.132;2022-12-05T02:23:51;10.63;;;5.67;;
23060;SDS011;11698;47.690;9.132;2022-12-05T02:29:18;11.02;;;5.82;;
23060;SDS011;11698;47.690;9.132;2022-12-05T02:31:50;12.00;;;5.85;;
23060;SDS011;11698;47.690;9.132;2022-12-05T02:36:46;12.70;;;6.30;;
23060;SDS011;11698;47.690;9.132;2022-12-05T02:44:37;9.98;;;5.82;;
23060;SDS011;11698;47.690;9.132;2022-12-05T02:47:06;9.35;;;5.30;;
23060;SDS011;11698;47.690;9.132;2022-12-05T02:49:34;13.10;;;6.28;;
23060;SDS011;11698;47.690;9.132;2022-12-05T02:52:01;11.63;;;5.65;;
23060;SDS011;11698;47.690;9.132;2022-12-05T02:54:29;10.38;;;5.88;;
23060;SDS011;11698;47.690;9.132;2022-12-05T02:56:56;10.85;;;6.05;;
23060;SDS011;11698;47.690;9.132;2022-12-05T02:59:23;13.40;;;6.72;;
23060;SDS011;11698;47.690;9.132;2022-12-05T03:01:50;11.20;;;5.43;;
23060;SDS011;11698;47.690;9.132;2022-12-05T03:04:16;11.20;;;5.97;;
23060;SDS011;11698;47.690;9.132;2022-12-05T03:09:23;11.13;;;5.85;;
23060;SDS011;11698;47.690;9.132;2022-12-05T03:11:54;11.73;;;6.13;;
23060;SDS011;11698;47.690;9.132;2022-12-05T03:14:27;11.95;;;5.80;;
23060;SDS011;11698;47.690;9.132;2022-12-05T03:16:57;11.75;;;5.78;;
23060;SDS011;11698;47.690;9.132;2022-12-05T03:21:54;10.48;;;5.38;;
23060;SDS011;11698;47.690;9.132;2022-12-05T03:24:21;10.23;;;5.72;;
23060;SDS011;11698;47.690;9.132;2022-12-05T03:29:33;12.63;;;5.97;;
23060;SDS011;11698;47.690;9.132;2022-12-05T03:32:04;9.90;;;6.05;;
23060;SDS011;11698;47.690;9.132;2022-12-05T03:34:34;12.23;;;6.40;;
23060;SDS011;11698;47.690;9.132;2022-12-05T03:37:04;8.07;;;5.43;;
23060;SDS011;11698;47.690;9.132;2022-12-05T03:39:32;12.60;;;5.93;;
23060;SDS011;11698;47.690;9.132;2022-12-05T03:42:12;12.00;;;5.60;;
23060;SDS011;11698;47.690;9.132;2022-12-05T03:49:49;11.60;;;5.95;;
23060;SDS011;11698;47.690;9.132;2022-12-05T03:52:21;10.23;;;6.23;;
23060;SDS011;11698;47.690;9.132;2022-12-05T03:55:00;11.70;;;6.22;;
23060;SDS011;11698;47.690;9.132;2022-12-05T03:57:32;12.30;;;6.28;;
23060;SDS011;11698;47.690;9.132;2022-12-05T04:02:37;11.52;;;6.47;;
23060;SDS011;11698;47.690;9.132;2022-12-05T04:05:11;10.15;;;5.60;;
23060;SDS011;11698;47.690;9.132;2022-12-05T04:07:39;9.80;;;5.70;;
23060;SDS011;11698;47.690;9.132;2022-12-05T04:10:15;9.63;;;5.50;;
23060;SDS011;11698;47.690;9.132;2022-12-05T04:12:42;11.70;;;5.88;;
23060;SDS011;11698;47.690;9.132;2022-12-05T04:15:14;9.67;;;5.63;;
23060;SDS011;11698;47.690;9.132;2022-12-05T04:17:45;10.73;;;5.85;;
23060;SDS011;11698;47.690;9.132;2022-12-05T04:23:29;11.60;;;5.82;;
23060;SDS011;11698;47.690;9.132;2022-12-05T04:31:14;12.18;;;6.00;;
23060;SDS011;11698;47.690;9.132;2022-12-05T04:39:21;10.30;;;5.60;;
23060;SDS011;11698;47.690;9.132;2022-12-05T04:41:36;11.93;;;5.65;;
23060;SDS011;11698;47.690;9.132;2022-12-05T04:44:05;10.23;;;5.78;;
23060;SDS011;11698;47.690;9.132;2022-12-05T04:46:32;11.30;;;5.90;;
23060;SDS011;11698;47.690;9.132;2022-12-05T04:49:00;11.10;;;5.70;;
23060;SDS011;11698;47.690;9.132;2022-12-05T04:51:28;9.65;;;5.18;;
23060;SDS011;11698;47.690;9.132;2022-12-05T04:53:56;11.63;;;5.70;;
23060;SDS011;11698;47.690;9.132;2022-12-05T04:56:26;10.45;;;5.68;;
23060;SDS011;11698;47.690;9.132;2022-12-05T04:58:53;11.80;;;6.22;;
23060;SDS011;11698;47.690;9.132;2022-12-05T05:03:53;11.07;;;5.75;;
23060;SDS011;11698;47.690;9.132;2022-12-05T05:06:20;11.03;;;5.40;;
23060;SDS011;11698;47.690;9.132;2022-12-05T05:08:47;10.25;;;5.85;;
23060;SDS011;11698;47.690;9.132;2022-12-05T05:11:16;11.50;;;5.88;;
23060;SDS011;11698;47.690;9.132;2022-12-05T05:13:43;9.83;;;5.47;;
23060;SDS011;11698;47.690;9.132;2022-12-05T05:16:13;11.07;;;6.10;;
23060;SDS011;11698;47.690;9.132;2022-12-05T05:18:39;11.73;;;6.18;;
23060;SDS011;11698;47.690;9.132;2022-12-05T05:21:05;12.13;;;6.27;;
23060;SDS011;11698;47.690;9.132;2022-12-05T05:23:31;10.43;;;5.90;;
23060;SDS011;11698;47.690;9.132;2022-12-05T05:25:57;10.63;;;5.60;;
23060;SDS011;11698;47.690;9.132;2022-12-05T05:28:23;11.63;;;6.63;;
23060;SDS011;11698;47.690;9.132;2022-12-05T05:30:49;13.13;;;6.13;;
23060;SDS011;11698;47.690;9.132;2022-12-05T05:33:15;12.45;;;7.45;;
23060;SDS011;11698;47.690;9.132;2022-12-05T05:35:41;10.50;;;6.53;;
23060;SDS011;11698;47.690;9.132;2022-12-05T05:38:07;10.80;;;6.05;;
23060;SDS011;11698;47.690;9.132;2022-12-05T05:40:34;10.30;;;5.80;;
23060;SDS011;11698;47.690;9.132;2022-12-05T05:43:00;9.43;;;5.20;;
23060;SDS011;11698;47.690;9.132;2022-12-05T05:45:26;9.27;;;4.90;;
23060;SDS011;11698;47.690;9.132;2022-12-05T05:47:52;12.05;;;6.20;;
23060;SDS011;11698;47.690;9.132;2022-12-05T05:50:18;12.18;;;6.00;;
23060;SDS011;11698;47.690;9.132;2022-12-05T05:52:44;12.02;;;6.38;;
23060;SDS011;11698;47.690;9.132;2022-12-05T05:55:10;11.38;;;6.20;;
23060;SDS011;11698;47.690;9.132;2022-12-05T05:57:36;10.15;;;5.88;;
23060;SDS011;11698;47.690;9.132;2022-12-05T06:00:04;10.68;;;5.90;;
23060;SDS011;11698;47.690;9.132;2022-12-05T06:02:31;9.20;;;5.60;;
23060;SDS011;11698;47.690;9.132;2022-12-05T06:04:57;9.53;;;5.40;;
23060;SDS011;11698;47.690;9.132;2022-12-05T06:07:23;10.20;;;5.43;;
23060;SDS011;11698;47.690;9.132;2022-12-05T06:09:49;11.52;;;5.28;;
23060;SDS011;11698;47.690;9.132;2022-12-05T06:12:15;10.57;;;5.80;;
23060;SDS011;11698;47.690;9.132;2022-12-05T06:14:41;9.87;;;5.73;;
23060;SDS011;11698;47.690;9.132;2022-12-05T06:17:07;10.02;;;6.05;;
23060;SDS011;11698;47.690;9.132;2022-12-05T06:19:33;9.43;;;5.07;;
23060;SDS011;11698;47.690;9.132;2022-12-05T06:21:59;9.73;;;5.55;;
23060;SDS011;11698;47.690;9.132;2022-12-05T06:24:25;10.65;;;5.82;;
23060;SDS011;11698;47.690;9.132;2022-12-05T06:26:51;10.70;;;5.38;;
23060;SDS011;11698;47.690;9.132;2022-12-05T06:29:17;10.32;;;5.60;;
23060;SDS011;11698;47.690;9.132;2022-12-05T06:31:43;10.20;;;5.05;;
23060;SDS011;11698;47.690;9.132;2022-12-05T06:34:09;8.20;;;5.18;;
23060;SDS011;11698;47.690;9.132;2022-12-05T06:36:35;11.95;;;5.78;;
23060;SDS011;11698;47.690;9.132;2022-12-05T06:39:01;12.80;;;6.65;;
23060;SDS011;11698;47.690;9.132;2022-12-05T06:41:27;13.25;;;7.40;;
23060;SDS011;11698;47.690;9.132;2022-12-05T06:43:54;11.68;;;6.95;;
23060;SDS011;11698;47.690;9.132;2022-12-05T06:46:20;11.75;;;6.57;;
23060;SDS011;11698;47.690;9.132;2022-12-05T06:48:47;9.60;;;5.82;;
23060;SDS011;11698;47.690;9.132;2022-12-05T06:51:14;13.57;;;6.30;;
23060;SDS011;11698;47.690;9.132;2022-12-05T06:53:40;10.80;;;5.85;;
23060;SDS011;11698;47.690;9.132;2022-12-05T06:56:08;10.15;;;5.88;;
23060;SDS011;11698;47.690;9.132;2022-12-05T06:58:41;10.47;;;6.23;;
23060;SDS011;11698;47.690;9.132;2022-12-05T07:01:11;8.50;;;5.72;;
23060;SDS011;11698;47.690;9.132;2022-12-05T07:03:56;10.25;;;6.07;;
23060;SDS011;11698;47.690;9.132;2022-12-05T07:06:23;12.60;;;6.35;;
23060;SDS011;11698;47.690;9.132;2022-12-05T07:08:49;10.40;;;6.18;;
23060;SDS011;11698;47.690;9.132;2022-12-05T07:11:15;10.98;;;6.40;;
23060;SDS011;11698;47.690;9.132;2022-12-05T07:13:41;12.07;;;6.15;;
23060;SDS011;11698;47.690;9.132;2022-12-05T07:16:07;10.35;;;6.05;;
23060;SDS011;11698;47.690;9.132;2022-12-05T07:18:34;10.90;;;5.90;;
23060;SDS011;11698;47.690;9.132;2022-12-05T07:21:03;11.13;;;5.65;;
23060;SDS011;11698;47.690;9.132;2022-12-05T07:23:30;17.48;;;7.35;;
23060;SDS011;11698;47.690;9.132;2022-12-05T07:25:56;14.88;;;6.90;;
23060;SDS011;11698;47.690;9.132;2022-12-05T07:28:22;12.63;;;6.75;;
23060;SDS011;11698;47.690;9.132;2022-12-05T07:30:57;9.50;;;5.85;;
23060;SDS011;11698;47.690;9.132;2022-12-05T07:33:24;12.55;;;5.55;;
23060;SDS011;11698;47.690;9.132;2022-12-05T07:35:49;10.30;;;4.88;;
23060;SDS011;11698;47.690;9.132;2022-12-05T07:38:15;7.10;;;4.55;;
23060;SDS011;11698;47.690;9.132;2022-12-05T07:40:41;9.20;;;4.65;;
23060;SDS011;11698;47.690;9.132;2022-12-05T07:43:07;12.13;;;4.70;;
23060;SDS011;11698;47.690;9.132;2022-12-05T07:45:34;9.30;;;4.47;;
23060;SDS011;11698;47.690;9.132;2022-12-05T07:48:00;9.65;;;4.82;;
23060;SDS011;11698;47.690;9.132;2022-12-05T07:50:26;9.85;;;4.22;;
23060;SDS011;11698;47.690;9.132;2022-12-05T07:52:52;9.57;;;4.85;;
23060;SDS011;11698;47.690;9.132;2022-12-05T07:55:18;14.57;;;5.15;;
23060;SDS011;11698;47.690;9.132;2022-12-05T07:57:44;10.00;;;4.57;;
23060;SDS011;11698;47.690;9.132;2022-12-05T08:00:10;7.63;;;4.40;;
23060;SDS011;11698;47.690;9.132;2022-12-05T08:02:36;8.55;;;4.50;;
23060;SDS011;11698;47.690;9.132;2022-12-05T08:05:02;8.37;;;4.20;;
23060;SDS011;11698;47.690;9.132;2022-12-05T08:07:28;6.93;;;3.80;;
23060;SDS011;11698;47.690;9.132;2022-12-05T08:09:54;5.85;;;3.70;;
23060;SDS011;11698;47.690;9.132;2022-12-05T08:12:20;7.32;;;3.85;;
23060;SDS011;11698;47.690;9.132;2022-12-05T08:14:46;12.35;;;3.63;;
23060;SDS011;11698;47.690;9.132;2022-12-05T08:17:12;11.70;;;4.07;;
23060;SDS011;11698;47.690;9.132;2022-12-05T08:19:38;10.77;;;4.53;;
23060;SDS011;11698;47.690;9.132;2022-12-05T08:22:04;16.30;;;4.22;;
23060;SDS011;11698;47.690;9.132;2022-12-05T08:24:30;8.07;;;3.65;;
23060;SDS011;11698;47.690;9.132;2022-12-05T08:26:56;6.32;;;2.90;;
23060;SDS011;11698;47.690;9.132;2022-12-05T08:29:22;8.43;;;4.03;;
23060;SDS011;11698;47.690;9.132;2022-12-05T08:31:49;8.57;;;3.47;;
23060;SDS011;11698;47.690;9.132;2022-12-05T08:34:17;6.15;;;3.45;;
23060;SDS011;11698;47.690;9.132;2022-12-05T08:36:43;7.07;;;4.13;;
23060;SDS011;11698;47.690;9.132;2022-12-05T08:39:10;11.07;;;4.60;;
23060;SDS011;11698;47.690;9.132;2022-12-05T08:41:39;9.73;;;4.22;;
23060;SDS011;11698;47.690;9.132;2022-12-05T08:44:05;8.80;;;3.92;;
23060;SDS011;11698;47.690;9.132;2022-12-05T08:46:33;7.88;;;3.90;;
23060;SDS011;11698;47.690;9.132;2022-12-05T08:49:00;7.47;;;3.80;;
23060;SDS011;11698;47.690;9.132;2022-12-05T08:51:26;8.67;;;4.40;;
23060;SDS011;11698;47.690;9.132;2022-12-05T08:53:52;8.73;;;3.40;;
23060;SDS011;11698;47.690;9.132;2022-12-05T08:56:20;9.63;;;3.85;;
23060;SDS011;11698;47.690;9.132;2022-12-05T08:58:46;9.25;;;3.15;;
23060;SDS011;11698;47.690;9.132;2022-12-05T09:01:13;9.13;;;3.60;;
23060;SDS011;11698;47.690;9.132;2022-12-05T09:03:39;5.97;;;2.95;;
23060;SDS011;11698;47.690;9.132;2022-12-05T09:06:09;7.55;;;3.28;;
23060;SDS011;11698;47.690;9.132;2022-12-05T09:08:37;5.55;;;2.80;;
23060;SDS011;11698;47.690;9.132;2022-12-05T09:11:04;6.82;;;2.88;;
23060;SDS011;11698;47.690;9.132;2022-12-05T09:13:30;4.07;;;2.42;;
23060;SDS011;11698;47.690;9.132;2022-12-05T09:15:56;5.57;;;2.50;;
23060;SDS011;11698;47.690;9.132;2022-12-05T09:18:22;3.70;;;2.40;;
23060;SDS011;11698;47.690;9.132;2022-12-05T09:20:48;5.93;;;2.60;;
23060;SDS011;11698;47.690;9.132;2022-12-05T09:23:14;5.50;;;2.60;;
23060;SDS011;11698;47.690;9.132;2022-12-05T09:25:40;7.13;;;2.95;;
23060;SDS011;11698;47.690;9.132;2022-12-05T09:28:06;7.07;;;3.13;;
23060;SDS011;11698;47.690;9.132;2022-12-05T09:30:32;13.75;;;4.07;;
23060;SDS011;11698;47.690;9.132;2022-12-05T09:32:58;16.98;;;4.68;;
23060;SDS011;11698;47.690;9.132;2022-12-05T09:35:24;18.52;;;4.03;;
23060;SDS011;11698;47.690;9.132;2022-12-05T09:37:50;5.17;;;2.97;;
23060;SDS011;11698;47.690;9.132;2022-12-05T09:40:16;4.55;;;2.83;;
23060;SDS011;11698;47.690;9.132;2022-12-05T09:42:57;4.60;;;2.78;;
23060;SDS011;11698;47.690;9.132;2022-12-05T09:45:28;4.30;;;2.67;;
23060;SDS011;11698;47.690;9.132;2022-12-05T09:53:10;13.65;;;3.45;;
23060;SDS011;11698;47.690;9.132;2022-12-05T09:56:24;7.35;;;2.88;;
23060;SDS011;11698;47.690;9.132;2022-12-05T09:58:25;7.75;;;2.72;;
23060;SDS011;11698;47.690;9.132;2022-12-05T10:00:54;4.60;;;2.58;;
23060;SDS011;11698;47.690;9.132;2022-12-05T10:03:32;4.07;;;2.33;;
23060;SDS011;11698;47.690;9.132;2022-12-05T10:06:07;3.27;;;2.30;;
23060;SDS011;11698;47.690;9.132;2022-12-05T10:11:02;4.67;;;2.03;;
23060;SDS011;11698;47.690;9.132;2022-12-05T10:13:36;4.53;;;2.17;;
23060;SDS011;11698;47.690;9.132;2022-12-05T10:16:04;2.83;;;1.80;;
23060;SDS011;11698;47.690;9.132;2022-12-05T10:21:04;1.52;;;1.42;;
23060;SDS011;11698;47.690;9.132;2022-12-05T10:23:37;3.53;;;1.60;;
23060;SDS011;11698;47.690;9.132;2022-12-05T10:26:08;1.90;;;1.70;;
23060;SDS011;11698;47.690;9.132;2022-12-05T10:28:37;2.67;;;1.60;;
23060;SDS011;11698;47.690;9.132;2022-12-05T10:31:06;13.65;;;2.60;;
23060;SDS011;11698;47.690;9.132;2022-12-05T10:33:37;2.65;;;1.40;;
23060;SDS011;11698;47.690;9.132;2022-12-05T10:36:13;2.47;;;1.35;;
23060;SDS011;11698;47.690;9.132;2022-12-05T10:38:41;2.43;;;1.50;;
23060;SDS011;11698;47.690;9.132;2022-12-05T10:41:08;2.83;;;1.45;;
23060;SDS011;11698;47.690;9.132;2022-12-05T10:43:35;2.45;;;1.60;;
23060;SDS011;11698;47.690;9.132;2022-12-05T10:46:02;3.60;;;1.60;;
23060;SDS011;11698;47.690;9.132;2022-12-05T10:48:28;2.15;;;1.50;;
23060;SDS011;11698;47.690;9.132;2022-12-05T10:50:58;2.40;;;1.60;;
23060;SDS011;11698;47.690;9.132;2022-12-05T10:53:26;3.60;;;1.48;;
23060;SDS011;11698;47.690;9.132;2022-12-05T10:55:52;1.77;;;1.40;;
23060;SDS011;11698;47.690;9.132;2022-12-05T10:58:24;5.40;;;1.90;;
23060;SDS011;11698;47.690;9.132;2022-12-05T11:00:52;4.78;;;1.95;;
23060;SDS011;11698;47.690;9.132;2022-12-05T11:03:26;2.58;;;1.60;;
23060;SDS011;11698;47.690;9.132;2022-12-05T11:05:55;2.40;;;1.60;;
23060;SDS011;11698;47.690;9.132;2022-12-05T11:08:22;2.78;;;1.50;;
23060;SDS011;11698;47.690;9.132;2022-12-05T11:10:49;3.65;;;1.42;;
23060;SDS011;11698;47.690;9.132;2022-12-05T11:13:25;2.75;;;1.50;;
23060;SDS011;11698;47.690;9.132;2022-12-05T11:15:51;2.15;;;1.40;;
23060;SDS011;11698;47.690;9.132;2022-12-05T11:20:49;2.88;;;1.50;;
23060;SDS011;11698;47.690;9.132;2022-12-05T11:23:23;1.73;;;1.50;;
23060;SDS011;11698;47.690;9.132;2022-12-05T11:25:50;1.43;;;1.33;;
23060;SDS011;11698;47.690;9.132;2022-12-05T11:31:01;2.30;;;1.48;;
23060;SDS011;11698;47.690;9.132;2022-12-05T11:33:32;1.63;;;1.30;;
23060;SDS011;11698;47.690;9.132;2022-12-05T11:36:12;1.92;;;1.20;;
23060;SDS011;11698;47.690;9.132;2022-12-05T11:38:39;1.25;;;1.10;;
23060;SDS011;11698;47.690;9.132;2022-12-05T11:46:16;2.50;;;1.20;;
23060;SDS011;11698;47.690;9.132;2022-12-05T11:51:38;1.27;;;1.00;;
23060;SDS011;11698;47.690;9.132;2022-12-05T11:54:11;1.25;;;0.90;;
23060;SDS011;11698;47.690;9.132;2022-12-05T11:56:48;2.22;;;0.90;;
23060;SDS011;11698;47.690;9.132;2022-12-05T12:07:20;2.47;;;1.30;;
23060;SDS011;11698;47.690;9.132;2022-12-05T12:41:16;1.00;;;0.90;;
23060;SDS011;11698;47.690;9.132;2022-12-05T12:49:04;1.40;;;1.13;;
23060;SDS011;11698;47.690;9.132;2022-12-05T12:51:34;1.50;;;1.10;;
23060;SDS011;11698;47.690;9.132;2022-12-05T13:01:38;0.98;;;0.90;;
23060;SDS011;11698;47.690;9.132;2022-12-05T13:06:50;1.38;;;1.27;;
23060;SDS011;11698;47.690;9.132;2022-12-05T13:11:48;1.73;;;1.10;;
23060;SDS011;11698;47.690;9.132;2022-12-05T13:14:16;1.23;;;0.90;;
23060;SDS011;11698;47.690;9.132;2022-12-05T13:16:44;0.80;;;0.80;;
23060;SDS011;11698;47.690;9.132;2022-12-05T13:21:52;14.70;;;6.10;;
23060;SDS011;11698;47.690;9.132;2022-12-05T13:24:21;10.20;;;5.57;;
23060;SDS011;11698;47.690;9.132;2022-12-05T13:26:49;2.20;;;2.00;;
23060;SDS011;11698;47.690;9.132;2022-12-05T13:29:28;1.20;;;1.10;;
23060;SDS011;11698;47.690;9.132;2022-12-05T13:31:54;2.53;;;1.50;;
23060;SDS011;11698;47.690;9.132;2022-12-05T13:36:59;1.77;;;1.20;;
23060;SDS011;11698;47.690;9.132;2022-12-05T13:39:53;1.52;;;1.33;;
23060;SDS011;11698;47.690;9.132;2022-12-05T13:42:38;1.80;;;1.20;;
23060;SDS011;11698;47.690;9.132;2022-12-05T13:45:14;1.27;;;1.00;;
23060;SDS011;11698;47.690;9.132;2022-12-05T13:53:05;1.08;;;0.98;;
23060;SDS011;11698;47.690;9.132;2022-12-05T13:55:53;1.40;;;1.23;;
23060;SDS011;11698;47.690;9.132;2022-12-05T14:00:45;1.80;;;1.20;;
23060;SDS011;11698;47.690;9.132;2022-12-05T14:03:15;1.60;;;1.20;;
23060;SDS011;11698;47.690;9.132;2022-12-05T14:05:46;1.38;;;1.05;;
23060;SDS011;11698;47.690;9.132;2022-12-05T14:11:05;1.40;;;1.15;;
23060;SDS011;11698;47.690;9.132;2022-12-05T14:16:59;1.45;;;1.17;;
23060;SDS011;11698;47.690;9.132;2022-12-05T14:19:00;2.08;;;1.17;;
23060;SDS011;11698;47.690;9.132;2022-12-05T14:21:40;1.90;;;1.20;;
23060;SDS011;11698;47.690;9.132;2022-12-05T14:24:17;1.27;;;1.17;;
23060;SDS011;11698;47.690;9.132;2022-12-05T14:34:26;2.70;;;2.40;;
23060;SDS011;11698;47.690;9.132;2022-12-05T14:39:20;1.80;;;1.30;;
23060;SDS011;11698;47.690;9.132;2022-12-05T14:41:46;1.15;;;1.05;;
23060;SDS011;11698;47.690;9.132;2022-12-05T14:44:20;1.73;;;1.30;;
23060;SDS011;11698;47.690;9.132;2022-12-05T14:46:46;2.03;;;1.10;;
23060;SDS011;11698;47.690;9.132;2022-12-05T14:51:57;1.42;;;1.20;;
23060;SDS011;11698;47.690;9.132;2022-12-05T14:54:24;1.70;;;1.40;;
23060;SDS011;11698;47.690;9.132;2022-12-05T14:56:52;2.05;;;1.45;;
23060;SDS011;11698;47.690;9.132;2022-12-05T14:59:26;1.73;;;1.33;;
23060;SDS011;11698;47.690;9.132;2022-12-05T15:01:54;4.10;;;1.80;;
23060;SDS011;11698;47.690;9.132;2022-12-05T15:07:09;2.20;;;1.23;;
23060;SDS011;11698;47.690;9.132;2022-12-05T15:12:38;2.20;;;1.52;;
23060;SDS011;11698;47.690;9.132;2022-12-05T15:15:11;1.70;;;1.60;;
23060;SDS011;11698;47.690;9.132;2022-12-05T15:17:51;2.50;;;1.58;;
23060;SDS011;11698;47.690;9.132;2022-12-05T15:20:21;3.00;;;2.08;;
23060;SDS011;11698;47.690;9.132;2022-12-05T15:22:50;4.10;;;2.17;;
23060;SDS011;11698;47.690;9.132;2022-12-05T15:25:23;4.90;;;2.60;;
23060;SDS011;11698;47.690;9.132;2022-12-05T15:27:52;4.68;;;2.33;;
23060;SDS011;11698;47.690;9.132;2022-12-05T15:30:18;2.90;;;2.23;;
23060;SDS011;11698;47.690;9.132;2022-12-05T15:32:44;4.07;;;2.20;;
23060;SDS011;11698;47.690;9.132;2022-12-05T15:35:10;3.63;;;2.13;;
23060;SDS011;11698;47.690;9.132;2022-12-05T15:42:34;5.97;;;2.13;;
23060;SDS011;11698;47.690;9.132;2022-12-05T15:47:43;5.82;;;2.95;;
23060;SDS011;11698;47.690;9.132;2022-12-05T15:58:01;13.27;;;7.90;;
23060;SDS011;11698;47.690;9.132;2022-12-05T16:00:30;16.48;;;11.10;;
23060;SDS011;11698;47.690;9.132;2022-12-05T16:03:10;17.90;;;11.48;;
23060;SDS011;11698;47.690;9.132;2022-12-05T16:05:51;15.57;;;10.63;;
23060;SDS011;11698;47.690;9.132;2022-12-05T16:08:18;10.82;;;7.28;;
23060;SDS011;11698;47.690;9.132;2022-12-05T16:10:44;10.63;;;7.20;;
23060;SDS011;11698;47.690;9.132;2022-12-05T16:13:12;8.85;;;5.25;;
23060;SDS011;11698;47.690;9.132;2022-12-05T16:15:44;8.30;;;5.20;;
23060;SDS011;11698;47.690;9.132;2022-12-05T16:18:26;6.77;;;5.10;;
23060;SDS011;11698;47.690;9.132;2022-12-05T16:20:52;7.10;;;4.45;;
23060;SDS011;11698;47.690;9.132;2022-12-05T16:23:21;8.00;;;4.88;;
23060;SDS011;11698;47.690;9.132;2022-12-05T16:25:48;8.00;;;4.70;;
23060;SDS011;11698;47.690;9.132;2022-12-05T16:28:15;7.90;;;4.20;;
23060;SDS011;11698;47.690;9.132;2022-12-05T16:33:37;6.43;;;4.13;;
23060;SDS011;11698;47.690;9.132;2022-12-05T16:36:07;5.57;;;4.28;;
23060;SDS011;11698;47.690;9.132;2022-12-05T16:38:33;5.15;;;4.22;;
23060;SDS011;11698;47.690;9.132;2022-12-05T16:41:01;4.55;;;3.47;;
23060;SDS011;11698;47.690;9.132;2022-12-05T16:46:30;5.68;;;4.50;;
23060;SDS011;11698;47.690;9.132;2022-12-05T16:49:15;4.40;;;3.03;;
23060;SDS011;11698;47.690;9.132;2022-12-05T16:51:52;8.38;;;5.18;;
23060;SDS011;11698;47.690;9.132;2022-12-05T16:54:18;8.40;;;3.87;;
23060;SDS011;11698;47.690;9.132;2022-12-05T16:56:44;9.87;;;6.13;;
23060;SDS011;11698;47.690;9.132;2022-12-05T16:59:13;8.32;;;4.80;;
23060;SDS011;11698;47.690;9.132;2022-12-05T17:01:42;6.10;;;4.10;;
23060;SDS011;11698;47.690;9.132;2022-12-05T17:04:08;5.60;;;3.80;;
23060;SDS011;11698;47.690;9.132;2022-12-05T17:06:35;4.45;;;3.45;;
23060;SDS011;11698;47.690;9.132;2022-12-05T17:09:01;4.85;;;3.20;;
23060;SDS011;11698;47.690;9.132;2022-12-05T17:11:28;2.95;;;2.10;;
23060;SDS011;11698;47.690;9.132;2022-12-05T17:13:56;3.45;;;2.67;;
23060;SDS011;11698;47.690;9.132;2022-12-05T17:16:23;3.10;;;2.30;;
23060;SDS011;11698;47.690;9.132;2022-12-05T17:18:50;3.92;;;2.65;;
23060;SDS011;11698;47.690;9.132;2022-12-05T17:21:20;4.22;;;2.83;;
23060;SDS011;11698;47.690;9.132;2022-12-05T17:23:48;4.10;;;2.90;;
23060;SDS011;11698;47.690;9.132;2022-12-05T17:26:15;3.65;;;2.47;;
23060;SDS011;11698;47.690;9.132;2022-12-05T17:28:41;4.82;;;2.50;;
23060;SDS011;11698;47.690;9.132;2022-12-05T17:31:08;3.95;;;2.72;;
23060;SDS011;11698;47.690;9.132;2022-12-05T17:33:35;5.72;;;2.80;;
23060;SDS011;11698;47.690;9.132;2022-12-05T17:36:00;8.90;;;4.97;;
23060;SDS011;11698;47.690;9.132;2022-12-05T17:38:26;10.43;;;6.28;;
23060;SDS011;11698;47.690;9.132;2022-12-05T17:40:53;9.90;;;4.90;;
23060;SDS011;11698;47.690;9.132;2022-12-05T17:43:18;9.98;;;6.03;;
23060;SDS011;11698;47.690;9.132;2022-12-05T17:45:44;8.35;;;5.55;;
23060;SDS011;11698;47.690;9.132;2022-12-05T17:48:12;10.85;;;6.70;;
23060;SDS011;11698;47.690;9.132;2022-12-05T17:50:42;10.95;;;7.30;;
23060;SDS011;11698;47.690;9.132;2022-12-05T17:53:13;10.48;;;6.78;;
23060;SDS011;11698;47.690;9.132;2022-12-05T17:55:40;10.52;;;6.78;;